Time;durP1;ratioP1;P1;durP2;ratioP2;P2;SDS_P1;SDS_P2;PMS_P1;PMS_P2;Temp;Humidity;BMP_temperature;BMP_pressure;BME280_temperature;BME280_humidity;BME280_pressure;Samples;Min_cycle;Max_cycle;Signal;HPM_P1;HPM_P2
2022/11/05 00:10:23;;;;;;;7.67;3.37;;;13.20;99.90;;;;;;5092110;28;20203;-58
2022/11/05 00:18:21;;;;;;;7.60;4.10;;;13.20;99.90;;;;;;5091781;28;20198;-58
2022/11/05 00:20:47;;;;;;;5.23;3.93;;;13.10;99.90;;;;;;5092062;28;20284;-58
2022/11/05 00:26:00;;;;;;;5.07;3.70;;;13.10;99.90;;;;;;5091844;28;20270;-58
2022/11/05 00:28:30;;;;;;;6.10;4.17;;;13.00;99.90;;;;;;5091874;28;20224;-59
2022/11/05 00:31:00;;;;;;;6.20;4.10;;;13.00;99.90;;;;;;5092336;28;20207;-58
2022/11/05 00:33:27;;;;;;;9.83;3.60;;;13.00;99.90;;;;;;5090935;28;20719;-58
2022/11/05 00:35:54;;;;;;;7.70;4.07;;;13.00;99.90;;;;;;5091920;28;20211;-58
2022/11/05 00:38:21;;;;;;;8.93;4.40;;;13.00;99.90;;;;;;5094596;28;20915;-58
2022/11/05 00:40:47;;;;;;;6.90;3.87;;;13.00;99.90;;;;;;5095697;28;20212;-59
2022/11/05 00:46:00;;;;;;;4.40;3.80;;;13.10;99.90;;;;;;5095512;28;20274;-58
2022/11/05 00:51:11;;;;;;;5.47;3.60;;;13.20;99.90;;;;;;5095379;28;20227;-58
2022/11/05 00:53:38;;;;;;;5.50;3.93;;;13.10;99.90;;;;;;5094701;28;20672;-57
2022/11/05 00:56:05;;;;;;;5.03;3.43;;;13.10;99.90;;;;;;5095407;28;20215;-58
2022/11/05 00:58:31;;;;;;;4.70;3.37;;;13.10;99.90;;;;;;5095127;28;20200;-59
2022/11/05 01:01:00;;;;;;;4.93;3.80;;;13.10;99.90;;;;;;5095304;28;20257;-59
2022/11/05 01:03:29;;;;;;;5.37;3.57;;;13.10;99.90;;;;;;5094522;28;20224;-58
2022/11/05 01:05:58;;;;;;;6.97;3.43;;;13.20;99.90;;;;;;5095071;28;20200;-59
2022/11/05 01:08:27;;;;;;;5.90;3.70;;;13.10;99.90;;;;;;5095033;28;20227;-58
2022/11/05 01:10:55;;;;;;;4.13;3.57;;;13.20;99.90;;;;;;5094943;28;20208;-57
2022/11/05 01:13:24;;;;;;;6.30;3.30;;;13.20;99.90;;;;;;5094831;28;20227;-58
2022/11/05 01:15:52;;;;;;;4.73;3.33;;;13.20;99.90;;;;;;5095056;28;20208;-57
2022/11/05 01:18:21;;;;;;;5.63;3.57;;;13.20;99.90;;;;;;5094902;28;20204;-58
2022/11/05 01:20:48;;;;;;;5.33;3.20;;;13.20;99.90;;;;;;5094852;28;20204;-57
2022/11/05 01:23:15;;;;;;;5.13;3.10;;;13.20;99.90;;;;;;5094198;28;20224;-57
2022/11/05 01:25:42;;;;;;;4.73;3.13;;;13.20;99.90;;;;;;5094762;28;20211;-57
2022/11/05 01:28:10;;;;;;;3.67;2.97;;;13.20;99.90;;;;;;5095000;28;20318;-58
2022/11/05 01:30:37;;;;;;;3.60;3.07;;;13.20;99.90;;;;;;5094888;28;20205;-58
2022/11/05 01:33:04;;;;;;;3.93;2.67;;;13.20;99.90;;;;;;5094604;28;20734;-57
2022/11/05 01:35:32;;;;;;;3.33;2.60;;;13.20;99.90;;;;;;5094867;28;20679;-58
2022/11/05 01:37:59;;;;;;;3.80;2.50;;;13.20;99.90;;;;;;5094453;28;20211;-58
2022/11/05 01:40:26;;;;;;;2.90;2.43;;;13.10;99.90;;;;;;5094822;28;20227;-58
2022/11/05 01:42:53;;;;;;;3.77;2.50;;;13.10;99.90;;;;;;5094052;28;20204;-58
2022/11/05 01:45:22;;;;;;;5.40;3.70;;;13.10;99.90;;;;;;5094411;28;20372;-57
2022/11/05 01:47:57;;;;;;;3.13;2.20;;;13.10;99.90;;;;;;5094387;28;20216;-57
2022/11/05 01:50:37;;;;;;;3.83;2.23;;;13.10;99.90;;;;;;5094104;28;20231;-57
2022/11/05 01:53:17;;;;;;;3.73;2.20;;;13.00;99.90;;;;;;5093818;28;20595;-57
2022/11/05 01:55:47;;;;;;;2.80;2.27;;;13.00;99.90;;;;;;5094493;28;20208;-57
2022/11/05 01:58:20;;;;;;;5.40;2.50;;;13.00;99.90;;;;;;5094244;28;20212;-57
2022/11/05 02:00:47;;;;;;;4.40;2.50;;;13.00;99.90;;;;;;5094088;28;20208;-57
2022/11/05 02:03:16;;;;;;;4.27;2.30;;;13.00;99.90;;;;;;5093370;28;20224;-57
2022/11/05 02:05:46;;;;;;;2.33;2.03;;;13.00;99.90;;;;;;5094086;28;20208;-57
2022/11/05 02:08:21;;;;;;;3.37;2.10;;;12.90;99.90;;;;;;5094039;28;20208;-57
2022/11/05 02:10:48;;;;;;;4.47;2.30;;;12.90;99.90;;;;;;5094036;28;20220;-59
2022/11/05 02:13:15;;;;;;;6.10;2.27;;;12.90;99.90;;;;;;5093112;28;20224;-57
2022/11/05 02:15:54;;;;;;;2.33;2.13;;;12.90;99.90;;;;;;5093539;28;20227;-58
2022/11/05 02:18:29;;;;;;;2.93;2.10;;;12.90;99.90;;;;;;5093867;28;20204;-57
2022/11/05 02:21:15;;;;;;;3.50;2.67;;;13.00;99.90;;;;;;5093808;28;20572;-57
2022/11/05 02:23:56;;;;;;;2.77;2.10;;;12.90;99.90;;;;;;5092864;28;20712;-58
2022/11/05 02:26:53;;;;;;;3.43;2.10;;;12.90;99.90;;;;;;5093776;28;20218;-57
2022/11/05 02:29:46;;;;;;;2.57;1.93;;;12.90;99.90;;;;;;5093627;28;20228;-58
2022/11/05 02:32:22;;;;;;;2.53;2.33;;;12.90;99.90;;;;;;5093766;28;20215;-58
2022/11/05 02:34:55;;;;;;;2.70;2.23;;;12.90;99.90;;;;;;5093257;28;20239;-58
2022/11/05 02:37:36;;;;;;;2.93;2.10;;;12.90;99.90;;;;;;5093100;28;20235;-59
2022/11/05 02:40:13;;;;;;;4.83;2.23;;;12.80;99.90;;;;;;5093548;28;20199;-57
2022/11/05 02:42:45;;;;;;;3.33;2.20;;;12.70;99.90;;;;;;5092673;28;20680;-57
2022/11/05 02:45:25;;;;;;;4.07;3.10;;;12.70;99.90;;;;;;5093272;28;20225;-57
2022/11/05 02:47:58;;;;;;;3.27;2.50;;;12.80;99.90;;;;;;5093180;28;20235;-59
2022/11/05 02:50:34;;;;;;;3.40;2.40;;;12.80;99.90;;;;;;5093074;28;20254;-57
2022/11/05 02:53:04;;;;;;;2.40;2.17;;;12.80;99.90;;;;;;5092210;28;20654;-58
2022/11/05 02:55:34;;;;;;;3.47;2.40;;;12.70;99.90;;;;;;5093199;28;20211;-57
2022/11/05 02:58:03;;;;;;;3.03;2.50;;;12.60;99.90;;;;;;5093094;28;20215;-57
2022/11/05 03:00:43;;;;;;;2.60;2.03;;;12.60;99.90;;;;;;5093075;28;20204;-58
2022/11/05 03:03:18;;;;;;;2.40;2.07;;;12.60;99.90;;;;;;5092703;28;20220;-57
2022/11/05 03:05:59;;;;;;;3.30;2.60;;;12.60;99.90;;;;;;5093417;28;20211;-58
2022/11/05 03:08:37;;;;;;;2.37;2.17;;;12.70;99.90;;;;;;5093609;28;20208;-58
2022/11/05 03:11:09;;;;;;;3.30;2.70;;;12.70;99.90;;;;;;5093892;28;20215;-58
2022/11/05 03:13:44;;;;;;;3.50;2.40;;;12.70;99.90;;;;;;5092713;28;20235;-57
2022/11/05 03:16:18;;;;;;;3.37;2.70;;;12.60;99.90;;;;;;5093145;28;20574;-57
2022/11/05 03:18:50;;;;;;;3.33;2.90;;;12.60;99.90;;;;;;5093143;28;20668;-58
2022/11/05 03:21:21;;;;;;;3.63;2.97;;;12.60;99.90;;;;;;5093174;28;20204;-58
2022/11/05 03:23:54;;;;;;;3.37;3.03;;;12.60;99.90;;;;;;5092290;28;20225;-56
2022/11/05 03:26:26;;;;;;;3.47;2.90;;;12.60;99.90;;;;;;5093490;28;20204;-56
2022/11/05 03:28:58;;;;;;;7.03;3.20;;;12.50;99.90;;;;;;5093015;28;20200;-56
2022/11/05 03:31:27;;;;;;;4.77;2.83;;;12.40;99.90;;;;;;5093122;28;20200;-57
2022/11/05 03:33:56;;;;;;;3.93;3.00;;;12.50;99.90;;;;;;5092370;28;20236;-58
2022/11/05 03:36:27;;;;;;;3.67;3.13;;;12.50;99.90;;;;;;5092806;28;20208;-57
2022/11/05 03:38:56;;;;;;;3.77;2.67;;;12.60;99.90;;;;;;5092761;28;20201;-59
2022/11/05 03:41:25;;;;;;;3.80;2.80;;;12.60;99.90;;;;;;5092922;28;20253;-57
2022/11/05 03:43:55;;;;;;;4.83;3.80;;;12.60;99.90;;;;;;5092162;28;20224;-57
2022/11/05 03:46:27;;;;;;;5.43;3.47;;;12.60;99.90;;;;;;5092606;28;20215;-59
2022/11/05 03:48:58;;;;;;;4.03;3.43;;;12.70;99.90;;;;;;5092337;28;20204;-57
2022/11/05 03:51:32;;;;;;;5.33;3.30;;;12.70;99.90;;;;;;5092355;28;20215;-58
2022/11/05 03:54:02;;;;;;;6.53;3.40;;;12.60;99.90;;;;;;5092362;28;20223;-57
2022/11/05 03:56:35;;;;;;;4.70;4.07;;;12.70;99.90;;;;;;5092816;28;20208;-57
2022/11/05 03:59:04;;;;;;;4.00;3.60;;;12.70;99.90;;;;;;5092445;28;20207;-56
2022/11/05 04:01:31;;;;;;;3.57;3.23;;;12.70;99.90;;;;;;5092155;28;20207;-57
2022/11/05 04:03:59;;;;;;;3.97;3.57;;;12.70;99.90;;;;;;5091102;28;20724;-59
2022/11/05 04:14:39;;;;;;;5.40;4.10;;;12.60;99.90;;;;;;5095453;28;20226;-58
2022/11/05 04:17:05;;;;;;;6.03;4.27;;;12.60;99.90;;;;;;5096074;28;20219;-58
2022/11/05 04:25:01;;;;;;;5.07;4.40;;;12.60;99.90;;;;;;5096080;28;20203;-58
2022/11/05 04:27:28;;;;;;;4.60;4.20;;;12.60;99.90;;;;;;5095757;28;20718;-57
2022/11/05 04:32:39;;;;;;;5.27;4.67;;;12.40;99.90;;;;;;5094862;28;20272;-59
2022/11/05 04:35:07;;;;;;;5.77;4.60;;;12.40;99.90;;;;;;5095511;28;20215;-57
2022/11/05 04:37:34;;;;;;;7.10;5.27;;;12.40;99.90;;;;;;5095781;28;20208;-58
2022/11/05 04:40:00;;;;;;;5.50;5.00;;;12.50;99.90;;;;;;5095856;28;20203;-57
2022/11/05 04:42:28;;;;;;;6.17;4.80;;;12.60;99.90;;;;;;5095656;28;20200;-59
2022/11/05 04:44:54;;;;;;;7.03;5.43;;;12.50;99.90;;;;;;5095025;28;20273;-57
2022/11/05 04:47:21;;;;;;;7.33;5.47;;;12.60;99.90;;;;;;5095431;28;20215;-57
2022/11/05 04:49:48;;;;;;;5.67;5.17;;;12.60;99.90;;;;;;5095282;28;20228;-58
2022/11/05 04:52:16;;;;;;;6.63;5.30;;;12.60;99.90;;;;;;5095548;28;20200;-58
2022/11/05 04:54:43;;;;;;;5.90;4.97;;;12.60;99.90;;;;;;5094786;28;20224;-58
2022/11/05 04:57:10;;;;;;;9.33;7.30;;;12.50;99.90;;;;;;5095405;28;20204;-58
2022/11/05 04:59:37;;;;;;;6.30;5.50;;;12.40;99.90;;;;;;5095236;28;20710;-57
2022/11/05 05:02:04;;;;;;;6.63;4.83;;;12.30;99.90;;;;;;5095036;28;20211;-59
2022/11/05 05:04:30;;;;;;;6.77;5.57;;;12.30;99.90;;;;;;5094412;28;20220;-59
2022/11/05 05:06:57;;;;;;;6.57;5.47;;;12.30;99.90;;;;;;5095305;28;20215;-57
2022/11/05 05:09:25;;;;;;;7.40;5.47;;;12.30;99.90;;;;;;5094870;28;20696;-59
2022/11/05 05:11:52;;;;;;;6.77;6.07;;;12.40;99.90;;;;;;5095152;28;20208;-61
2022/11/05 05:14:18;;;;;;;5.63;5.13;;;12.40;99.90;;;;;;5094336;28;20232;-59
2022/11/05 05:16:45;;;;;;;7.43;5.73;;;12.40;99.90;;;;;;5095330;28;20200;-59
2022/11/05 05:19:12;;;;;;;6.90;5.40;;;12.50;99.90;;;;;;5095126;28;20582;-60
2022/11/05 05:21:37;;;;;;;5.93;5.27;;;12.50;99.90;;;;;;5094671;28;20667;-59
2022/11/05 05:24:07;;;;;;;7.63;6.50;;;12.60;99.90;;;;;;5093524;28;20227;-57
2022/11/05 05:26:35;;;;;;;8.83;6.70;;;12.60;99.90;;;;;;5094749;28;20232;-57
2022/11/05 05:29:02;;;;;;;8.03;6.30;;;12.50;99.90;;;;;;5094717;28;20239;-59
2022/11/05 05:31:29;;;;;;;12.87;7.37;;;12.50;99.90;;;;;;5094554;28;20228;-58
2022/11/05 05:33:56;;;;;;;8.33;6.23;;;12.40;99.90;;;;;;5093952;28;20236;-58
2022/11/05 05:36:23;;;;;;;9.07;6.87;;;12.40;99.90;;;;;;5094492;28;20215;-59
2022/11/05 05:38:50;;;;;;;7.20;6.47;;;12.40;99.90;;;;;;5095637;28;20204;-58
2022/11/05 05:41:17;;;;;;;7.83;6.40;;;12.40;99.90;;;;;;5095341;28;20212;-61
2022/11/05 05:43:45;;;;;;;9.33;7.57;;;12.30;99.90;;;;;;5094137;28;20597;-58
2022/11/05 05:46:13;;;;;;;8.60;6.37;;;12.40;99.90;;;;;;5094328;28;20219;-58
2022/11/05 05:48:41;;;;;;;11.20;7.93;;;12.40;99.90;;;;;;5094545;28;20211;-56
2022/11/05 05:51:10;;;;;;;7.83;7.03;;;12.30;99.90;;;;;;5094193;28;20231;-58
2022/11/05 05:53:37;;;;;;;7.20;6.50;;;12.30;99.90;;;;;;5093649;28;20224;-57
2022/11/05 05:56:04;;;;;;;8.93;7.30;;;12.20;99.90;;;;;;5094163;28;20239;-57
2022/11/05 05:58:33;;;;;;;9.27;7.80;;;12.10;99.90;;;;;;5094012;28;20208;-58
2022/11/05 06:01:03;;;;;;;10.23;7.43;;;12.10;99.90;;;;;;5094220;28;20636;-57
2022/11/05 06:03:29;;;;;;;8.67;7.77;;;12.10;99.90;;;;;;5093752;28;20228;-58
2022/11/05 06:06:00;;;;;;;9.00;7.63;;;12.20;99.90;;;;;;5094012;28;20660;-57
2022/11/05 06:08:27;;;;;;;7.60;6.90;;;12.20;99.90;;;;;;5094046;28;20204;-58
2022/11/05 06:10:53;;;;;;;8.93;8.03;;;12.30;99.90;;;;;;5093650;28;20718;-59
2022/11/05 06:13:20;;;;;;;8.93;7.70;;;12.30;99.90;;;;;;5093602;28;20231;-59
2022/11/05 06:15:47;;;;;;;8.90;7.17;;;12.30;99.90;;;;;;5093817;28;20207;-58
2022/11/05 06:18:15;;;;;;;8.30;7.43;;;12.40;99.90;;;;;;5093805;28;20212;-58
2022/11/05 06:20:42;;;;;;;11.07;8.83;;;12.30;99.90;;;;;;5093925;28;20208;-58
2022/11/05 06:23:08;;;;;;;9.20;8.17;;;12.30;99.90;;;;;;5092935;28;20220;-58
2022/11/05 06:25:35;;;;;;;16.87;12.57;;;12.30;99.90;;;;;;5093444;28;20599;-58
2022/11/05 06:28:02;;;;;;;12.23;8.50;;;12.30;99.90;;;;;;5093826;28;20230;-58
2022/11/05 06:30:29;;;;;;;10.67;8.57;;;12.30;99.90;;;;;;5093640;28;20219;-58
2022/11/05 06:32:55;;;;;;;9.43;8.23;;;12.40;99.90;;;;;;5092952;28;20236;-58
2022/11/05 06:35:23;;;;;;;9.13;7.60;;;12.50;99.90;;;;;;5092928;28;20208;-59
2022/11/05 06:37:50;;;;;;;9.20;7.67;;;12.50;99.90;;;;;;5093313;28;20607;-59
2022/11/05 06:40:17;;;;;;;9.03;8.07;;;12.50;99.90;;;;;;5093136;28;20207;-59
2022/11/05 06:42:44;;;;;;;10.73;9.30;;;12.50;99.90;;;;;;5093539;28;20573;-58
2022/11/05 06:45:10;;;;;;;11.37;9.10;;;12.50;99.90;;;;;;5092837;28;20231;-59
2022/11/05 06:47:37;;;;;;;11.93;8.97;;;12.50;99.90;;;;;;5093174;28;20211;-57
2022/11/05 06:50:04;;;;;;;10.20;8.13;;;12.50;99.90;;;;;;5093187;28;20277;-58
2022/11/05 06:52:32;;;;;;;9.37;7.87;;;12.50;99.90;;;;;;5092976;28;20208;-60
2022/11/05 06:54:59;;;;;;;12.27;8.97;;;12.50;99.90;;;;;;5092359;28;20235;-58
2022/11/05 06:57:26;;;;;;;9.97;8.03;;;12.40;99.90;;;;;;5093324;28;20208;-58
2022/11/05 06:59:53;;;;;;;10.37;8.77;;;12.40;99.90;;;;;;5092896;28;20684;-57
2022/11/05 07:02:19;;;;;;;12.37;8.90;;;12.30;99.90;;;;;;5092952;28;20211;-57
2022/11/05 07:04:46;;;;;;;9.93;8.93;;;12.30;99.90;;;;;;5092213;28;20263;-58
2022/11/05 07:07:13;;;;;;;14.57;10.80;;;12.30;99.90;;;;;;5092650;28;20204;-57
2022/11/05 07:09:42;;;;;;;12.10;9.03;;;12.40;99.90;;;;;;5092913;28;20208;-56
2022/11/05 07:12:09;;;;;;;15.80;12.33;;;12.40;99.90;;;;;;5093076;28;20225;-57
2022/11/05 07:14:35;;;;;;;10.37;8.93;;;12.50;99.90;;;;;;5092072;28;20235;-57
2022/11/05 07:17:02;;;;;;;11.23;9.13;;;12.60;99.90;;;;;;5092703;28;20211;-56
2022/11/05 07:19:29;;;;;;;10.43;8.63;;;12.60;99.90;;;;;;5092503;28;20223;-59
2022/11/05 07:21:56;;;;;;;11.33;10.03;;;12.70;99.90;;;;;;5092300;28;20755;-58
2022/11/05 07:24:22;;;;;;;9.37;7.93;;;12.80;99.90;;;;;;5092134;28;20231;-57
2022/11/05 07:26:51;;;;;;;9.50;8.50;;;12.90;99.90;;;;;;5092748;28;20207;-57
2022/11/05 07:29:18;;;;;;;9.77;8.50;;;13.00;99.90;;;;;;5092883;28;20200;-58
2022/11/05 07:31:46;;;;;;;9.97;8.20;;;13.10;99.90;;;;;;5092017;28;20227;-62
2022/11/05 07:34:22;;;;;;;18.60;14.17;;;13.20;99.90;;;;;;5114568;22;20235;-60
2022/11/05 07:36:49;;;;;;;12.27;7.97;;;13.20;99.90;;;;;;5088740;28;20249;-59
2022/11/05 07:39:16;;;;;;;12.93;8.57;;;13.30;99.90;;;;;;5095654;28;20243;-59
2022/11/05 07:41:43;;;;;;;8.87;7.83;;;13.30;99.90;;;;;;5094452;28;20261;-62
2022/11/05 07:44:13;;;;;;;8.87;7.97;;;13.40;99.90;;;;;;5095268;28;20235;-61
2022/11/05 07:46:41;;;;;;;10.70;8.47;;;13.40;99.90;;;;;;5094661;28;20291;-60
2022/11/05 07:49:10;;;;;;;12.70;9.00;;;13.50;99.90;;;;;;5094730;28;20577;-62
2022/11/05 07:51:37;;;;;;;9.23;7.97;;;13.40;99.90;;;;;;5094244;28;20647;-60
2022/11/05 07:54:04;;;;;;;10.27;8.30;;;13.40;99.90;;;;;;5093179;28;20239;-63
2022/11/05 07:56:31;;;;;;;12.10;10.70;;;13.40;99.90;;;;;;5093204;28;20204;-62
2022/11/05 07:58:58;;;;;;;11.00;9.10;;;13.40;99.90;;;;;;5093811;28;20219;-62
2022/11/05 08:01:26;;;;;;;10.93;8.77;;;13.60;99.90;;;;;;5092943;28;20196;-59
2022/11/05 08:03:52;;;;;;;9.93;8.27;;;13.80;99.90;;;;;;5093189;28;20310;-59
2022/11/05 08:06:19;;;;;;;11.63;8.33;;;14.00;99.90;;;;;;5093578;28;20581;-58
2022/11/05 08:08:46;;;;;;;8.60;7.27;;;14.10;99.90;;;;;;5093645;28;20204;-58
2022/11/05 08:11:13;;;;;;;11.30;8.30;;;14.20;99.90;;;;;;5093861;28;20310;-59
2022/11/05 08:13:41;;;;;;;9.70;8.20;;;14.20;99.90;;;;;;5093540;28;20228;-60
2022/11/05 08:16:09;;;;;;;12.03;8.30;;;14.30;99.90;;;;;;5092908;28;20212;-59
2022/11/05 08:18:38;;;;;;;10.27;8.00;;;14.30;99.90;;;;;;5093135;28;20207;-59
2022/11/05 08:21:08;;;;;;;8.60;7.70;;;14.10;99.90;;;;;;5093126;28;20235;-59
2022/11/05 08:23:35;;;;;;;10.77;8.13;;;13.80;99.90;;;;;;5092799;28;20679;-59
2022/11/05 08:26:03;;;;;;;8.67;7.47;;;13.70;99.90;;;;;;5092511;28;20302;-58
2022/11/05 08:28:31;;;;;;;11.80;9.17;;;13.60;99.90;;;;;;5092933;28;20232;-58
2022/11/05 08:30:57;;;;;;;11.17;7.90;;;13.70;99.90;;;;;;5092044;28;20568;-57
2022/11/05 08:33:26;;;;;;;9.63;8.40;;;13.70;99.90;;;;;;5092060;28;20228;-58
2022/11/05 08:35:54;;;;;;;11.13;8.53;;;13.80;99.90;;;;;;5092260;28;20303;-58
2022/11/05 08:38:21;;;;;;;12.37;8.10;;;13.70;99.90;;;;;;5092777;28;20204;-57
2022/11/05 08:40:55;;;;;;;11.17;9.60;;;13.70;99.90;;;;;;5093026;28;20200;-58
2022/11/05 08:43:22;;;;;;;11.70;8.93;;;13.50;99.90;;;;;;5092664;28;20232;-58
2022/11/05 08:45:49;;;;;;;13.40;10.87;;;13.40;99.90;;;;;;5092969;28;20262;-60
2022/11/05 08:48:17;;;;;;;11.57;9.20;;;13.40;99.90;;;;;;5092695;28;20291;-59
2022/11/05 08:50:46;;;;;;;12.00;9.37;;;13.50;99.90;;;;;;5092850;28;20254;-57
2022/11/05 08:53:14;;;;;;;12.13;8.47;;;13.50;99.90;;;;;;5092240;28;20287;-61
2022/11/05 08:55:42;;;;;;;17.20;13.33;;;13.40;99.90;;;;;;5093318;28;20208;-58
2022/11/05 08:58:13;;;;;;;11.27;9.03;;;13.30;99.90;;;;;;5094393;28;20213;-59
2022/11/05 09:00:41;;;;;;;11.53;8.63;;;13.00;99.90;;;;;;5094112;28;20207;-60
2022/11/05 09:03:08;;;;;;;11.53;8.90;;;13.00;99.90;;;;;;5096756;28;20206;-62
2022/11/05 09:05:38;;;;;;;11.53;9.30;;;12.90;99.90;;;;;;5085879;28;20213;-64
2022/11/05 09:08:05;;;;;;;14.27;9.83;;;12.80;99.90;;;;;;5078187;28;20216;-64
2022/11/05 09:10:33;;;;;;;9.63;7.97;;;12.60;99.90;;;;;;5070458;28;20291;-64
2022/11/05 09:13:00;;;;;;;10.10;7.93;;;12.50;99.90;;;;;;5078380;28;20201;-64
2022/11/05 09:15:28;;;;;;;9.87;8.00;;;12.50;99.90;;;;;;5076113;28;20292;-59
2022/11/05 09:17:55;;;;;;;10.47;7.60;;;12.50;99.90;;;;;;5055907;28;20227;-60
2022/11/05 09:20:23;;;;;;;8.63;7.23;;;12.40;99.90;;;;;;5055879;28;20665;-61
2022/11/05 09:22:50;;;;;;;9.17;7.03;;;12.40;99.90;;;;;;5055193;28;20275;-61
2022/11/05 09:25:17;;;;;;;8.80;7.33;;;12.30;99.90;;;;;;5054045;28;20236;-64
2022/11/05 09:27:45;;;;;;;7.80;5.93;;;12.40;99.90;;;;;;5055218;28;20281;-60
2022/11/05 09:30:13;;;;;;;7.77;6.40;;;12.40;99.90;;;;;;5054153;28;20216;-59
2022/11/05 09:32:40;;;;;;;7.13;5.93;;;12.40;99.90;;;;;;5053208;28;20226;-60
2022/11/05 09:35:08;;;;;;;6.83;6.13;;;12.40;99.90;;;;;;5053174;28;20237;-59
2022/11/05 09:37:35;;;;;;;7.63;5.90;;;12.40;99.90;;;;;;5052911;28;20205;-59
2022/11/05 09:40:02;;;;;;;8.17;5.50;;;12.50;99.90;;;;;;5053333;28;20539;-61
2022/11/05 09:42:36;;;;;;;7.77;5.83;;;12.50;99.90;;;;;;5052908;28;20204;-60
2022/11/05 09:45:08;;;;;;;5.30;4.80;;;12.60;99.90;;;;;;5051653;28;20245;-62
2022/11/05 09:47:40;;;;;;;4.87;4.37;;;12.60;99.90;;;;;;5051928;28;20237;-68
2022/11/05 09:50:09;;;;;;;8.87;4.90;;;12.60;99.90;;;;;;5053740;28;20201;-63
2022/11/05 09:52:35;;;;;;;9.53;7.13;;;12.70;99.90;;;;;;5086336;28;20227;-59
2022/11/05 09:55:04;;;;;;;5.20;4.10;;;12.70;99.90;;;;;;5092701;28;20243;-59
2022/11/05 09:57:36;;;;;;;4.67;4.27;;;12.90;99.90;;;;;;5094219;28;20208;-60
2022/11/05 10:00:07;;;;;;;5.10;4.03;;;13.00;99.90;;;;;;5074871;28;20653;-61
2022/11/05 10:02:37;;;;;;;5.17;4.07;;;13.20;99.90;;;;;;5074216;28;20739;-61
2022/11/05 10:05:08;;;;;;;4.93;4.30;;;13.40;99.90;;;;;;5073498;28;20716;-60
2022/11/05 10:07:41;;;;;;;6.17;5.17;;;13.50;99.90;;;;;;5073712;28;20204;-58
2022/11/05 10:10:22;;;;;;;5.30;4.23;;;13.70;99.90;;;;;;5072321;28;20209;-59
2022/11/05 10:12:53;;;;;;;4.83;4.10;;;13.70;99.90;;;;;;5072627;28;20235;-61
2022/11/05 10:15:27;;;;;;;5.27;4.77;;;13.80;99.90;;;;;;5072462;28;20255;-62
2022/11/05 10:17:58;;;;;;;6.73;4.70;;;13.90;99.90;;;;;;5073302;28;20204;-61
2022/11/05 10:20:32;;;;;;;5.50;4.50;;;14.00;99.90;;;;;;5074778;28;20208;-59
2022/11/05 10:23:02;;;;;;;6.83;4.63;;;14.10;99.90;;;;;;5073912;28;20201;-59
2022/11/05 10:25:32;;;;;;;5.03;4.10;;;14.10;99.90;;;;;;5074210;28;20216;-56
2022/11/05 10:28:00;;;;;;;5.50;4.60;;;14.10;99.90;;;;;;5075363;28;20585;-58
2022/11/05 10:30:28;;;;;;;9.20;4.60;;;14.00;99.90;;;;;;5067089;28;20205;-58
2022/11/05 10:32:58;;;;;;;4.83;4.33;;;14.00;99.90;;;;;;5073580;28;20703;-59
2022/11/05 10:35:27;;;;;;;4.33;3.90;;;14.00;99.90;;;;;;5073236;28;20208;-63
2022/11/05 10:37:54;;;;;;;4.20;3.80;;;14.10;99.90;;;;;;5074536;28;20208;-62
2022/11/05 10:40:31;;;;;;;5.70;4.90;;;14.10;99.90;;;;;;5073368;28;20208;-60
2022/11/05 10:43:05;;;;;;;4.17;3.70;;;14.00;99.90;;;;;;5073186;28;20201;-59
2022/11/05 10:45:45;;;;;;;4.97;3.80;;;13.90;99.90;;;;;;5072314;28;20212;-58
2022/11/05 10:48:41;;;;;;;6.90;4.23;;;13.60;99.90;;;;;;5072444;28;20204;-60
2022/11/05 10:51:08;;;;;;;5.37;4.50;;;13.40;99.90;;;;;;5070295;28;20208;-61
2022/11/05 10:53:37;;;;;;;5.50;4.67;;;13.20;99.90;;;;;;5072205;28;20310;-62
2022/11/05 10:56:04;;;;;;;7.40;5.43;;;13.20;99.90;;;;;;5074386;28;20767;-62
2022/11/05 10:58:34;;;;;;;6.87;5.57;;;13.20;99.90;;;;;;5071848;28;20207;-57
2022/11/05 11:01:12;;;;;;;6.43;5.70;;;13.10;99.90;;;;;;5071791;28;20240;-64
2022/11/05 11:03:45;;;;;;;8.83;6.70;;;13.10;99.90;;;;;;5072048;28;20228;-56
2022/11/05 11:06:21;;;;;;;9.37;6.97;;;13.20;99.90;;;;;;5073196;28;20213;-56
2022/11/05 11:08:49;;;;;;;10.87;7.57;;;13.30;99.90;;;;;;5072470;28;20204;-56
2022/11/05 11:11:28;;;;;;;6.67;5.43;;;13.30;99.90;;;;;;5072186;28;20221;-57
2022/11/05 11:14:01;;;;;;;7.37;6.13;;;13.40;99.90;;;;;;5071739;28;20225;-56
2022/11/05 11:16:35;;;;;;;9.87;6.63;;;13.30;99.90;;;;;;5072731;28;20576;-58
2022/11/05 11:19:03;;;;;;;8.67;6.30;;;13.30;99.90;;;;;;5073047;28;20234;-61
2022/11/05 11:21:31;;;;;;;7.27;5.70;;;13.30;99.90;;;;;;5072920;28;20213;-58
2022/11/05 11:24:01;;;;;;;6.83;5.57;;;13.40;99.90;;;;;;5073371;28;20229;-60
2022/11/05 11:26:31;;;;;;;7.13;5.10;;;13.60;99.90;;;;;;5093222;28;20655;-56
2022/11/05 11:29:00;;;;;;;7.53;6.57;;;13.60;99.90;;;;;;5093244;28;20212;-56
2022/11/05 11:31:31;;;;;;;11.43;9.87;;;13.70;99.90;;;;;;5094317;28;20220;-56
2022/11/05 11:34:02;;;;;;;9.97;7.40;;;13.50;99.90;;;;;;5092411;28;20733;-56
2022/11/05 11:36:34;;;;;;;13.77;8.30;;;13.30;99.90;;;;;;5093678;28;20200;-56
2022/11/05 11:39:03;;;;;;;14.43;10.83;;;13.20;99.90;;;;;;5093360;28;20200;-56
2022/11/05 11:41:33;;;;;;;10.63;7.30;;;13.10;99.90;;;;;;5092841;28;20204;-56
2022/11/05 11:44:06;;;;;;;9.13;6.90;;;12.90;99.90;;;;;;5092587;28;20228;-56
2022/11/05 11:46:35;;;;;;;12.57;7.70;;;12.70;99.90;;;;;;5092583;28;20578;-55
2022/11/05 11:49:03;;;;;;;9.73;7.10;;;12.50;99.90;;;;;;5092782;28;20238;-56
2022/11/05 11:51:34;;;;;;;12.33;7.90;;;12.40;99.90;;;;;;5092372;28;20227;-55
2022/11/05 11:54:02;;;;;;;11.23;8.30;;;12.30;99.90;;;;;;5092174;28;20615;-56
2022/11/05 11:56:31;;;;;;;11.33;7.77;;;12.20;99.90;;;;;;5092728;28;20200;-56
2022/11/05 11:59:20;;;;;;;11.30;7.23;;;12.20;99.90;;;;;;5091759;28;20204;-56
2022/11/05 12:02:19;;;;;;;9.90;7.07;;;12.40;99.90;;;;;;5091541;28;20208;-57
2022/11/05 12:05:02;;;;;;;10.07;6.90;;;12.60;99.90;;;;;;5090726;28;20603;-56
2022/11/05 12:07:39;;;;;;;9.33;6.63;;;13.20;99.90;;;;;;5091634;28;20236;-56
2022/11/05 12:10:37;;;;;;;9.27;6.20;;;13.20;99.90;;;;;;5091309;28;20208;-58
2022/11/05 12:13:35;;;;;;;8.13;6.10;;;13.30;99.90;;;;;;5088885;28;20220;-55
2022/11/05 12:16:14;;;;;;;13.23;7.10;;;13.50;99.90;;;;;;5091531;28;20573;-55
2022/11/05 12:18:48;;;;;;;7.97;5.70;;;13.40;99.90;;;;;;5091601;28;20215;-54
2022/11/05 12:21:20;;;;;;;7.00;6.30;;;13.50;99.90;;;;;;5091623;28;20223;-55
2022/11/05 12:24:06;;;;;;;8.13;6.27;;;13.80;99.90;;;;;;5091026;28;20232;-57
2022/11/05 12:26:41;;;;;;;8.50;6.20;;;14.10;99.90;;;;;;5091318;28;20237;-55
2022/11/05 12:29:37;;;;;;;7.97;5.20;;;14.20;99.90;;;;;;5091439;28;20200;-55
2022/11/05 12:32:23;;;;;;;12.23;6.93;;;14.30;99.90;;;;;;5091245;28;20220;-57
2022/11/05 12:34:59;;;;;;;8.90;7.67;;;14.50;99.90;;;;;;5094395;28;20239;-56
2022/11/05 12:37:33;;;;;;;11.57;8.87;;;14.60;99.90;;;;;;5095835;28;20230;-56
2022/11/05 12:40:22;;;;;;;9.50;7.73;;;14.60;99.90;;;;;;5096454;28;20217;-56
2022/11/05 12:43:03;;;;;;;8.07;5.83;;;14.60;99.90;;;;;;5095890;28;20196;-57
2022/11/05 12:45:41;;;;;;;6.87;5.33;;;14.30;99.90;;;;;;5095128;28;20204;-55
2022/11/05 12:48:36;;;;;;;8.00;6.27;;;14.00;99.90;;;;;;5095517;28;20590;-57
2022/11/05 12:51:14;;;;;;;8.63;6.10;;;13.60;99.90;;;;;;5095608;28;20235;-55
2022/11/05 12:54:07;;;;;;;7.37;5.77;;;13.50;99.90;;;;;;5094902;28;20243;-56
2022/11/05 12:56:40;;;;;;;10.53;6.77;;;13.40;99.90;;;;;;5095166;28;20204;-58
2022/11/05 12:59:18;;;;;;;8.47;5.67;;;13.60;99.90;;;;;;5095196;28;20208;-57
2022/11/05 13:01:49;;;;;;;5.83;5.20;;;13.80;99.90;;;;;;5094928;28;20204;-56
2022/11/05 13:04:27;;;;;;;13.90;8.17;;;13.80;99.90;;;;;;5094575;28;20224;-57
2022/11/05 13:06:57;;;;;;;9.13;6.10;;;13.60;99.90;;;;;;5094954;28;20212;-63
2022/11/05 13:09:29;;;;;;;7.13;6.00;;;13.60;99.90;;;;;;5095830;28;20200;-63
2022/11/05 13:11:59;;;;;;;7.97;6.37;;;13.40;99.90;;;;;;5095624;28;20224;-64
2022/11/05 13:14:33;;;;;;;10.40;6.70;;;13.40;99.90;;;;;;5095038;28;20235;-63
2022/11/05 13:17:04;;;;;;;8.03;6.47;;;13.60;99.90;;;;;;5095205;28;20223;-60
2022/11/05 13:19:36;;;;;;;9.03;6.43;;;13.80;99.90;;;;;;5095705;28;20215;-61
2022/11/05 13:22:13;;;;;;;13.83;6.70;;;14.00;99.90;;;;;;5096897;28;20196;-62
2022/11/05 13:24:47;;;;;;;15.70;10.53;;;13.90;99.90;;;;;;5096218;28;20635;-60
2022/11/05 13:27:39;;;;;;;10.00;6.67;;;13.80;99.90;;;;;;5095043;28;20204;-60
2022/11/05 13:30:12;;;;;;;9.63;6.43;;;13.90;99.90;;;;;;5081970;28;20207;-57
2022/11/05 13:32:41;;;;;;;9.80;6.17;;;14.10;99.90;;;;;;5094420;28;20228;-58
2022/11/05 13:35:16;;;;;;;6.60;5.23;;;14.20;99.90;;;;;;5095079;28;20246;-59
2022/11/05 13:40:46;;;;;;;4.80;4.03;;;14.40;99.90;;;;;;5072049;28;20208;-58
2022/11/05 13:43:25;;;;;;;5.40;4.27;;;14.20;99.90;;;;;;5072926;28;20695;-58